sensor_id;sensor_type;location;lat;lon;timestamp;P1;durP1;ratioP1;P2;durP2;ratioP2
38266;SDS011;24063;51.794;19.578;2022-11-24T00:00:39;30.15;;;26.77;;
38266;SDS011;24063;51.794;19.578;2022-11-24T00:01:57;30.09;;;26.36;;
38266;SDS011;24063;51.794;19.578;2022-11-24T00:02:59;34.32;;;28.94;;
38266;SDS011;24063;51.794;19.578;2022-11-24T00:04:02;34.24;;;29.35;;
38266;SDS011;24063;51.794;19.578;2022-11-24T00:05:06;33.33;;;28.57;;
38266;SDS011;24063;51.794;19.578;2022-11-24T00:06:09;34.07;;;29.21;;
38266;SDS011;24063;51.794;19.578;2022-11-24T00:07:12;32.49;;;27.91;;
38266;SDS011;24063;51.794;19.578;2022-11-24T00:08:14;35.41;;;29.63;;
38266;SDS011;24063;51.794;19.578;2022-11-24T00:09:16;34.61;;;28.88;;
38266;SDS011;24063;51.794;19.578;2022-11-24T00:10:18;33.79;;;28.50;;
38266;SDS011;24063;51.794;19.578;2022-11-24T00:11:21;31.80;;;27.62;;
38266;SDS011;24063;51.794;19.578;2022-11-24T00:12:31;33.05;;;28.35;;
38266;SDS011;24063;51.794;19.578;2022-11-24T00:13:33;30.54;;;26.80;;
38266;SDS011;24063;51.794;19.578;2022-11-24T00:14:36;30.73;;;26.79;;
38266;SDS011;24063;51.794;19.578;2022-11-24T00:15:38;29.75;;;26.07;;
38266;SDS011;24063;51.794;19.578;2022-11-24T00:16:40;32.16;;;28.06;;
38266;SDS011;24063;51.794;19.578;2022-11-24T00:17:42;30.32;;;26.61;;
38266;SDS011;24063;51.794;19.578;2022-11-24T00:18:45;30.47;;;26.82;;
38266;SDS011;24063;51.794;19.578;2022-11-24T00:19:48;28.92;;;25.60;;
38266;SDS011;24063;51.794;19.578;2022-11-24T00:20:50;30.49;;;26.74;;
38266;SDS011;24063;51.794;19.578;2022-11-24T00:21:53;31.16;;;27.28;;
38266;SDS011;24063;51.794;19.578;2022-11-24T00:22:55;31.88;;;28.19;;
38266;SDS011;24063;51.794;19.578;2022-11-24T00:23:57;32.83;;;28.27;;
38266;SDS011;24063;51.794;19.578;2022-11-24T00:25:00;33.99;;;29.03;;
38266;SDS011;24063;51.794;19.578;2022-11-24T00:26:23;34.30;;;29.16;;
38266;SDS011;24063;51.794;19.578;2022-11-24T00:27:26;35.09;;;29.63;;
38266;SDS011;24063;51.794;19.578;2022-11-24T00:28:28;33.58;;;28.54;;
38266;SDS011;24063;51.794;19.578;2022-11-24T00:29:30;36.03;;;30.29;;
38266;SDS011;24063;51.794;19.578;2022-11-24T00:30:32;34.93;;;28.78;;
38266;SDS011;24063;51.794;19.578;2022-11-24T00:31:35;37.16;;;30.84;;
38266;SDS011;24063;51.794;19.578;2022-11-24T00:32:39;36.23;;;29.96;;
38266;SDS011;24063;51.794;19.578;2022-11-24T00:33:40;35.78;;;30.22;;
38266;SDS011;24063;51.794;19.578;2022-11-24T00:34:42;37.21;;;31.22;;
38266;SDS011;24063;51.794;19.578;2022-11-24T00:35:44;35.34;;;29.99;;
38266;SDS011;24063;51.794;19.578;2022-11-24T00:36:46;37.88;;;31.90;;
38266;SDS011;24063;51.794;19.578;2022-11-24T00:37:48;37.56;;;31.45;;
38266;SDS011;24063;51.794;19.578;2022-11-24T00:38:53;34.98;;;30.09;;
38266;SDS011;24063;51.794;19.578;2022-11-24T00:39:56;33.35;;;28.97;;
38266;SDS011;24063;51.794;19.578;2022-11-24T00:40:58;34.55;;;29.31;;
38266;SDS011;24063;51.794;19.578;2022-11-24T00:42:00;33.62;;;28.55;;
38266;SDS011;24063;51.794;19.578;2022-11-24T00:43:02;33.54;;;28.63;;
38266;SDS011;24063;51.794;19.578;2022-11-24T00:44:04;30.98;;;26.80;;
38266;SDS011;24063;51.794;19.578;2022-11-24T00:45:07;31.32;;;27.17;;
38266;SDS011;24063;51.794;19.578;2022-11-24T00:46:14;28.85;;;25.21;;
38266;SDS011;24063;51.794;19.578;2022-11-24T00:47:16;28.97;;;25.68;;
38266;SDS011;24063;51.794;19.578;2022-11-24T00:48:18;28.52;;;25.22;;
38266;SDS011;24063;51.794;19.578;2022-11-24T00:49:20;30.15;;;25.95;;
38266;SDS011;24063;51.794;19.578;2022-11-24T00:50:22;29.15;;;25.50;;
38266;SDS011;24063;51.794;19.578;2022-11-24T00:51:25;28.92;;;25.42;;
38266;SDS011;24063;51.794;19.578;2022-11-24T00:52:28;29.38;;;25.61;;
38266;SDS011;24063;51.794;19.578;2022-11-24T00:53:30;29.37;;;25.67;;
38266;SDS011;24063;51.794;19.578;2022-11-24T00:54:33;26.13;;;23.59;;
38266;SDS011;24063;51.794;19.578;2022-11-24T00:55:35;28.76;;;25.31;;
38266;SDS011;24063;51.794;19.578;2022-11-24T00:56:37;31.50;;;27.46;;
38266;SDS011;24063;51.794;19.578;2022-11-24T00:57:39;30.23;;;26.20;;
38266;SDS011;24063;51.794;19.578;2022-11-24T00:58:41;27.38;;;24.29;;
38266;SDS011;24063;51.794;19.578;2022-11-24T00:59:43;28.58;;;24.91;;
38266;SDS011;24063;51.794;19.578;2022-11-24T01:00:45;27.81;;;24.41;;
38266;SDS011;24063;51.794;19.578;2022-11-24T01:01:46;29.10;;;25.02;;
38266;SDS011;24063;51.794;19.578;2022-11-24T01:02:48;30.02;;;26.03;;
38266;SDS011;24063;51.794;19.578;2022-11-24T01:03:51;29.05;;;25.49;;
38266;SDS011;24063;51.794;19.578;2022-11-24T01:04:55;26.38;;;23.71;;
38266;SDS011;24063;51.794;19.578;2022-11-24T01:06:04;25.77;;;23.44;;
38266;SDS011;24063;51.794;19.578;2022-11-24T01:07:07;27.41;;;24.58;;
38266;SDS011;24063;51.794;19.578;2022-11-24T01:08:09;27.58;;;24.85;;
38266;SDS011;24063;51.794;19.578;2022-11-24T01:09:12;29.10;;;25.80;;
38266;SDS011;24063;51.794;19.578;2022-11-24T01:10:14;28.63;;;25.02;;
38266;SDS011;24063;51.794;19.578;2022-11-24T01:11:17;29.30;;;25.38;;
38266;SDS011;24063;51.794;19.578;2022-11-24T01:12:22;27.96;;;24.74;;
38266;SDS011;24063;51.794;19.578;2022-11-24T01:13:24;25.93;;;23.45;;
38266;SDS011;24063;51.794;19.578;2022-11-24T01:14:26;26.38;;;24.02;;
38266;SDS011;24063;51.794;19.578;2022-11-24T01:15:29;30.37;;;26.45;;
38266;SDS011;24063;51.794;19.578;2022-11-24T01:16:32;29.70;;;25.81;;
38266;SDS011;24063;51.794;19.578;2022-11-24T01:17:35;29.62;;;26.04;;
38266;SDS011;24063;51.794;19.578;2022-11-24T01:18:37;27.16;;;24.54;;
38266;SDS011;24063;51.794;19.578;2022-11-24T01:19:39;27.71;;;24.67;;
38266;SDS011;24063;51.794;19.578;2022-11-24T01:20:41;28.41;;;25.11;;
38266;SDS011;24063;51.794;19.578;2022-11-24T01:21:43;28.08;;;24.64;;
38266;SDS011;24063;51.794;19.578;2022-11-24T01:22:46;28.22;;;24.50;;
38266;SDS011;24063;51.794;19.578;2022-11-24T01:23:50;28.46;;;25.24;;
38266;SDS011;24063;51.794;19.578;2022-11-24T01:24:52;30.15;;;26.77;;
38266;SDS011;24063;51.794;19.578;2022-11-24T01:25:53;33.14;;;28.19;;
38266;SDS011;24063;51.794;19.578;2022-11-24T01:26:55;35.41;;;29.84;;
38266;SDS011;24063;51.794;19.578;2022-11-24T01:27:57;35.55;;;30.58;;
38266;SDS011;24063;51.794;19.578;2022-11-24T01:28:59;37.39;;;31.46;;
38266;SDS011;24063;51.794;19.578;2022-11-24T01:30:01;36.04;;;30.43;;
38266;SDS011;24063;51.794;19.578;2022-11-24T01:31:04;34.58;;;29.89;;
38266;SDS011;24063;51.794;19.578;2022-11-24T01:32:08;34.96;;;29.99;;
38266;SDS011;24063;51.794;19.578;2022-11-24T01:33:09;33.73;;;29.59;;
38266;SDS011;24063;51.794;19.578;2022-11-24T01:34:11;34.39;;;29.43;;
38266;SDS011;24063;51.794;19.578;2022-11-24T01:35:13;33.76;;;29.28;;
38266;SDS011;24063;51.794;19.578;2022-11-24T01:36:15;33.95;;;29.30;;
38266;SDS011;24063;51.794;19.578;2022-11-24T01:37:18;33.33;;;28.46;;
38266;SDS011;24063;51.794;19.578;2022-11-24T01:38:20;34.41;;;29.26;;
38266;SDS011;24063;51.794;19.578;2022-11-24T01:39:21;32.81;;;28.10;;
38266;SDS011;24063;51.794;19.578;2022-11-24T01:40:23;31.46;;;27.51;;
38266;SDS011;24063;51.794;19.578;2022-11-24T01:41:25;33.72;;;29.17;;
38266;SDS011;24063;51.794;19.578;2022-11-24T01:42:35;36.43;;;30.70;;
38266;SDS011;24063;51.794;19.578;2022-11-24T01:43:44;35.01;;;29.47;;
38266;SDS011;24063;51.794;19.578;2022-11-24T01:44:47;34.33;;;28.91;;
38266;SDS011;24063;51.794;19.578;2022-11-24T01:46:34;32.88;;;28.47;;
38266;SDS011;24063;51.794;19.578;2022-11-24T01:47:44;31.06;;;26.99;;
38266;SDS011;24063;51.794;19.578;2022-11-24T01:49:08;31.48;;;27.65;;
38266;SDS011;24063;51.794;19.578;2022-11-24T01:50:21;35.96;;;29.97;;
38266;SDS011;24063;51.794;19.578;2022-11-24T01:51:25;37.07;;;30.62;;
38266;SDS011;24063;51.794;19.578;2022-11-24T01:52:34;34.67;;;29.72;;
38266;SDS011;24063;51.794;19.578;2022-11-24T01:53:43;33.65;;;29.02;;
38266;SDS011;24063;51.794;19.578;2022-11-24T01:54:54;35.34;;;29.42;;
38266;SDS011;24063;51.794;19.578;2022-11-24T01:56:03;35.32;;;29.53;;
38266;SDS011;24063;51.794;19.578;2022-11-24T01:57:26;34.28;;;28.84;;
38266;SDS011;24063;51.794;19.578;2022-11-24T01:58:33;34.10;;;29.24;;
38266;SDS011;24063;51.794;19.578;2022-11-24T01:59:38;32.76;;;28.56;;
38266;SDS011;24063;51.794;19.578;2022-11-24T02:00:41;34.03;;;29.21;;
38266;SDS011;24063;51.794;19.578;2022-11-24T02:01:45;36.53;;;30.62;;
38266;SDS011;24063;51.794;19.578;2022-11-24T02:02:52;34.64;;;30.06;;
38266;SDS011;24063;51.794;19.578;2022-11-24T02:03:54;32.86;;;28.58;;
38266;SDS011;24063;51.794;19.578;2022-11-24T02:04:57;32.26;;;28.17;;
38266;SDS011;24063;51.794;19.578;2022-11-24T02:06:13;30.50;;;26.63;;
38266;SDS011;24063;51.794;19.578;2022-11-24T02:07:22;34.10;;;29.15;;
38266;SDS011;24063;51.794;19.578;2022-11-24T02:09:12;34.29;;;29.17;;
38266;SDS011;24063;51.794;19.578;2022-11-24T02:09:54;31.62;;;27.64;;
38266;SDS011;24063;51.794;19.578;2022-11-24T02:11:02;32.27;;;28.11;;
38266;SDS011;24063;51.794;19.578;2022-11-24T02:12:08;31.75;;;27.87;;
38266;SDS011;24063;51.794;19.578;2022-11-24T02:13:11;31.89;;;27.59;;
38266;SDS011;24063;51.794;19.578;2022-11-24T02:14:16;29.24;;;26.09;;
38266;SDS011;24063;51.794;19.578;2022-11-24T02:15:21;31.59;;;27.45;;
38266;SDS011;24063;51.794;19.578;2022-11-24T02:16:23;31.97;;;27.86;;
38266;SDS011;24063;51.794;19.578;2022-11-24T02:17:26;33.85;;;29.29;;
38266;SDS011;24063;51.794;19.578;2022-11-24T02:18:28;33.93;;;29.14;;
38266;SDS011;24063;51.794;19.578;2022-11-24T02:20:41;33.54;;;28.81;;
38266;SDS011;24063;51.794;19.578;2022-11-24T02:21:42;33.42;;;29.13;;
38266;SDS011;24063;51.794;19.578;2022-11-24T02:24:08;36.15;;;31.06;;
38266;SDS011;24063;51.794;19.578;2022-11-24T02:26:46;38.62;;;32.24;;
38266;SDS011;24063;51.794;19.578;2022-11-24T02:27:50;36.78;;;31.20;;
38266;SDS011;24063;51.794;19.578;2022-11-24T02:28:55;38.02;;;31.85;;
38266;SDS011;24063;51.794;19.578;2022-11-24T02:29:57;37.89;;;31.83;;
38266;SDS011;24063;51.794;19.578;2022-11-24T02:31:00;41.53;;;34.44;;
38266;SDS011;24063;51.794;19.578;2022-11-24T02:32:05;40.20;;;33.52;;
38266;SDS011;24063;51.794;19.578;2022-11-24T02:33:10;39.50;;;32.94;;
38266;SDS011;24063;51.794;19.578;2022-11-24T02:34:13;40.42;;;33.87;;
38266;SDS011;24063;51.794;19.578;2022-11-24T02:35:15;42.14;;;35.71;;
38266;SDS011;24063;51.794;19.578;2022-11-24T02:36:17;45.36;;;37.63;;
38266;SDS011;24063;51.794;19.578;2022-11-24T02:37:19;44.88;;;36.89;;
38266;SDS011;24063;51.794;19.578;2022-11-24T02:38:31;42.49;;;35.45;;
38266;SDS011;24063;51.794;19.578;2022-11-24T02:39:35;44.36;;;36.79;;
38266;SDS011;24063;51.794;19.578;2022-11-24T02:40:37;43.82;;;36.29;;
38266;SDS011;24063;51.794;19.578;2022-11-24T02:41:49;44.98;;;36.81;;
38266;SDS011;24063;51.794;19.578;2022-11-24T02:42:56;43.30;;;36.53;;
38266;SDS011;24063;51.794;19.578;2022-11-24T02:44:08;44.87;;;37.36;;
38266;SDS011;24063;51.794;19.578;2022-11-24T02:45:11;48.89;;;40.00;;
38266;SDS011;24063;51.794;19.578;2022-11-24T02:46:16;46.86;;;37.91;;
38266;SDS011;24063;51.794;19.578;2022-11-24T02:47:18;48.40;;;39.39;;
38266;SDS011;24063;51.794;19.578;2022-11-24T02:48:20;45.61;;;37.95;;
38266;SDS011;24063;51.794;19.578;2022-11-24T02:49:22;46.74;;;38.60;;
38266;SDS011;24063;51.794;19.578;2022-11-24T02:50:24;48.14;;;40.07;;
38266;SDS011;24063;51.794;19.578;2022-11-24T02:51:26;46.68;;;38.61;;
38266;SDS011;24063;51.794;19.578;2022-11-24T02:52:29;48.98;;;39.84;;
38266;SDS011;24063;51.794;19.578;2022-11-24T02:53:31;47.04;;;39.13;;
38266;SDS011;24063;51.794;19.578;2022-11-24T02:54:34;50.76;;;40.87;;
38266;SDS011;24063;51.794;19.578;2022-11-24T02:55:36;49.44;;;39.74;;
38266;SDS011;24063;51.794;19.578;2022-11-24T02:56:38;47.58;;;38.70;;
38266;SDS011;24063;51.794;19.578;2022-11-24T02:57:40;51.43;;;40.65;;
38266;SDS011;24063;51.794;19.578;2022-11-24T02:58:41;48.80;;;39.18;;
38266;SDS011;24063;51.794;19.578;2022-11-24T02:59:43;45.98;;;37.52;;
38266;SDS011;24063;51.794;19.578;2022-11-24T03:00:47;46.73;;;38.11;;
38266;SDS011;24063;51.794;19.578;2022-11-24T03:01:49;47.52;;;37.82;;
38266;SDS011;24063;51.794;19.578;2022-11-24T03:02:51;42.56;;;35.21;;
38266;SDS011;24063;51.794;19.578;2022-11-24T03:03:53;45.84;;;36.83;;
38266;SDS011;24063;51.794;19.578;2022-11-24T03:04:55;45.98;;;36.67;;
38266;SDS011;24063;51.794;19.578;2022-11-24T03:05:57;43.17;;;35.58;;
38266;SDS011;24063;51.794;19.578;2022-11-24T03:06:59;41.08;;;34.63;;
38266;SDS011;24063;51.794;19.578;2022-11-24T03:08:01;43.71;;;36.20;;
38266;SDS011;24063;51.794;19.578;2022-11-24T03:09:03;42.55;;;35.35;;
38266;SDS011;24063;51.794;19.578;2022-11-24T03:10:05;42.61;;;35.23;;
38266;SDS011;24063;51.794;19.578;2022-11-24T03:11:07;45.40;;;37.16;;
38266;SDS011;24063;51.794;19.578;2022-11-24T03:12:09;45.24;;;37.21;;
38266;SDS011;24063;51.794;19.578;2022-11-24T03:13:10;49.11;;;39.25;;
38266;SDS011;24063;51.794;19.578;2022-11-24T03:14:12;49.06;;;39.28;;
38266;SDS011;24063;51.794;19.578;2022-11-24T03:15:14;47.23;;;38.60;;
38266;SDS011;24063;51.794;19.578;2022-11-24T03:16:16;51.31;;;40.75;;
38266;SDS011;24063;51.794;19.578;2022-11-24T03:17:18;50.43;;;39.87;;
38266;SDS011;24063;51.794;19.578;2022-11-24T03:18:20;49.03;;;39.16;;
38266;SDS011;24063;51.794;19.578;2022-11-24T03:19:22;46.64;;;38.26;;
38266;SDS011;24063;51.794;19.578;2022-11-24T03:20:24;46.06;;;37.77;;
38266;SDS011;24063;51.794;19.578;2022-11-24T03:21:27;48.39;;;38.54;;
38266;SDS011;24063;51.794;19.578;2022-11-24T03:22:29;49.51;;;40.16;;
38266;SDS011;24063;51.794;19.578;2022-11-24T03:23:31;47.46;;;38.66;;
38266;SDS011;24063;51.794;19.578;2022-11-24T03:24:33;46.66;;;38.62;;
38266;SDS011;24063;51.794;19.578;2022-11-24T03:25:35;47.79;;;39.94;;
38266;SDS011;24063;51.794;19.578;2022-11-24T03:26:37;46.06;;;37.98;;
38266;SDS011;24063;51.794;19.578;2022-11-24T03:27:39;49.92;;;39.98;;
38266;SDS011;24063;51.794;19.578;2022-11-24T03:28:40;47.32;;;38.49;;
38266;SDS011;24063;51.794;19.578;2022-11-24T03:29:43;49.93;;;40.39;;
38266;SDS011;24063;51.794;19.578;2022-11-24T03:30:46;49.81;;;40.42;;
38266;SDS011;24063;51.794;19.578;2022-11-24T03:31:49;48.60;;;40.53;;
38266;SDS011;24063;51.794;19.578;2022-11-24T03:32:51;49.29;;;41.04;;
38266;SDS011;24063;51.794;19.578;2022-11-24T03:33:54;50.49;;;41.16;;
38266;SDS011;24063;51.794;19.578;2022-11-24T03:34:56;50.60;;;40.44;;
38266;SDS011;24063;51.794;19.578;2022-11-24T03:35:57;49.97;;;40.95;;
38266;SDS011;24063;51.794;19.578;2022-11-24T03:36:59;49.00;;;40.24;;
38266;SDS011;24063;51.794;19.578;2022-11-24T03:38:01;48.09;;;39.16;;
38266;SDS011;24063;51.794;19.578;2022-11-24T03:39:03;47.97;;;38.94;;
38266;SDS011;24063;51.794;19.578;2022-11-24T03:40:05;47.93;;;39.54;;
38266;SDS011;24063;51.794;19.578;2022-11-24T03:41:08;48.67;;;40.10;;
38266;SDS011;24063;51.794;19.578;2022-11-24T03:42:10;46.83;;;38.18;;
38266;SDS011;24063;51.794;19.578;2022-11-24T03:43:12;46.38;;;38.36;;
38266;SDS011;24063;51.794;19.578;2022-11-24T03:44:14;46.68;;;38.86;;
38266;SDS011;24063;51.794;19.578;2022-11-24T03:45:16;44.10;;;37.57;;
38266;SDS011;24063;51.794;19.578;2022-11-24T03:46:38;49.96;;;40.97;;
38266;SDS011;24063;51.794;19.578;2022-11-24T03:47:39;51.01;;;41.40;;
38266;SDS011;24063;51.794;19.578;2022-11-24T03:48:41;50.53;;;41.03;;
38266;SDS011;24063;51.794;19.578;2022-11-24T03:49:43;49.76;;;40.32;;
38266;SDS011;24063;51.794;19.578;2022-11-24T03:50:53;51.94;;;42.11;;
38266;SDS011;24063;51.794;19.578;2022-11-24T03:51:56;48.68;;;39.57;;
38266;SDS011;24063;51.794;19.578;2022-11-24T03:53:03;49.90;;;40.09;;
38266;SDS011;24063;51.794;19.578;2022-11-24T03:54:04;48.33;;;40.67;;
38266;SDS011;24063;51.794;19.578;2022-11-24T03:55:07;44.60;;;38.32;;
38266;SDS011;24063;51.794;19.578;2022-11-24T03:56:09;45.97;;;39.38;;
38266;SDS011;24063;51.794;19.578;2022-11-24T03:57:10;47.83;;;39.13;;
38266;SDS011;24063;51.794;19.578;2022-11-24T03:58:12;47.82;;;39.14;;
38266;SDS011;24063;51.794;19.578;2022-11-24T03:59:14;48.46;;;39.86;;
38266;SDS011;24063;51.794;19.578;2022-11-24T04:00:16;48.97;;;40.21;;
38266;SDS011;24063;51.794;19.578;2022-11-24T04:01:18;49.78;;;40.78;;
38266;SDS011;24063;51.794;19.578;2022-11-24T04:02:20;46.02;;;39.38;;
38266;SDS011;24063;51.794;19.578;2022-11-24T04:03:23;51.31;;;41.68;;
38266;SDS011;24063;51.794;19.578;2022-11-24T04:04:25;49.45;;;39.86;;
38266;SDS011;24063;51.794;19.578;2022-11-24T04:05:27;54.35;;;42.88;;
38266;SDS011;24063;51.794;19.578;2022-11-24T04:06:29;54.24;;;42.60;;
38266;SDS011;24063;51.794;19.578;2022-11-24T04:07:31;53.45;;;42.95;;
38266;SDS011;24063;51.794;19.578;2022-11-24T04:08:33;51.16;;;41.29;;
38266;SDS011;24063;51.794;19.578;2022-11-24T04:09:35;52.60;;;42.04;;
38266;SDS011;24063;51.794;19.578;2022-11-24T04:10:37;52.60;;;41.68;;
38266;SDS011;24063;51.794;19.578;2022-11-24T04:11:39;50.42;;;40.28;;
38266;SDS011;24063;51.794;19.578;2022-11-24T04:13:37;49.17;;;39.69;;
38266;SDS011;24063;51.794;19.578;2022-11-24T04:14:39;47.47;;;39.10;;
38266;SDS011;24063;51.794;19.578;2022-11-24T04:15:41;52.01;;;41.30;;
38266;SDS011;24063;51.794;19.578;2022-11-24T04:16:44;54.81;;;42.32;;
38266;SDS011;24063;51.794;19.578;2022-11-24T04:17:46;54.90;;;43.12;;
38266;SDS011;24063;51.794;19.578;2022-11-24T04:18:51;52.00;;;42.13;;
38266;SDS011;24063;51.794;19.578;2022-11-24T04:19:53;51.17;;;41.59;;
38266;SDS011;24063;51.794;19.578;2022-11-24T04:20:55;50.19;;;40.87;;
38266;SDS011;24063;51.794;19.578;2022-11-24T04:21:57;51.63;;;42.27;;
38266;SDS011;24063;51.794;19.578;2022-11-24T04:22:59;53.47;;;42.97;;
38266;SDS011;24063;51.794;19.578;2022-11-24T04:24:01;54.29;;;43.21;;
38266;SDS011;24063;51.794;19.578;2022-11-24T04:25:03;51.57;;;41.65;;
38266;SDS011;24063;51.794;19.578;2022-11-24T04:26:06;52.06;;;42.17;;
38266;SDS011;24063;51.794;19.578;2022-11-24T04:27:08;53.15;;;42.44;;
38266;SDS011;24063;51.794;19.578;2022-11-24T04:28:10;51.21;;;41.31;;
38266;SDS011;24063;51.794;19.578;2022-11-24T04:29:12;51.70;;;40.99;;
38266;SDS011;24063;51.794;19.578;2022-11-24T04:30:14;51.56;;;40.84;;
38266;SDS011;24063;51.794;19.578;2022-11-24T04:31:16;49.69;;;39.67;;
38266;SDS011;24063;51.794;19.578;2022-11-24T04:32:19;43.24;;;35.89;;
38266;SDS011;24063;51.794;19.578;2022-11-24T04:33:21;43.02;;;35.66;;
38266;SDS011;24063;51.794;19.578;2022-11-24T04:34:23;41.91;;;35.41;;
38266;SDS011;24063;51.794;19.578;2022-11-24T04:35:25;42.17;;;35.83;;
38266;SDS011;24063;51.794;19.578;2022-11-24T04:36:26;46.31;;;37.94;;
38266;SDS011;24063;51.794;19.578;2022-11-24T04:37:28;44.32;;;36.48;;
38266;SDS011;24063;51.794;19.578;2022-11-24T04:38:30;43.22;;;36.30;;
38266;SDS011;24063;51.794;19.578;2022-11-24T04:39:52;45.67;;;38.02;;
38266;SDS011;24063;51.794;19.578;2022-11-24T04:40:59;47.41;;;38.90;;
38266;SDS011;24063;51.794;19.578;2022-11-24T04:42:03;46.22;;;38.65;;
38266;SDS011;24063;51.794;19.578;2022-11-24T04:43:04;42.34;;;36.17;;
38266;SDS011;24063;51.794;19.578;2022-11-24T04:44:06;44.86;;;37.18;;
38266;SDS011;24063;51.794;19.578;2022-11-24T04:45:09;44.07;;;36.67;;
38266;SDS011;24063;51.794;19.578;2022-11-24T04:46:11;46.17;;;38.08;;
38266;SDS011;24063;51.794;19.578;2022-11-24T04:47:17;45.69;;;37.67;;
38266;SDS011;24063;51.794;19.578;2022-11-24T04:48:21;44.26;;;37.03;;
38266;SDS011;24063;51.794;19.578;2022-11-24T04:49:23;42.78;;;35.52;;
38266;SDS011;24063;51.794;19.578;2022-11-24T04:50:25;42.14;;;35.59;;
38266;SDS011;24063;51.794;19.578;2022-11-24T04:51:27;40.83;;;34.95;;
38266;SDS011;24063;51.794;19.578;2022-11-24T04:52:29;45.21;;;37.82;;
38266;SDS011;24063;51.794;19.578;2022-11-24T04:53:31;44.62;;;37.30;;
38266;SDS011;24063;51.794;19.578;2022-11-24T04:54:33;44.56;;;37.18;;
38266;SDS011;24063;51.794;19.578;2022-11-24T04:55:39;42.89;;;35.86;;
38266;SDS011;24063;51.794;19.578;2022-11-24T04:56:41;42.44;;;35.44;;
38266;SDS011;24063;51.794;19.578;2022-11-24T04:57:43;40.44;;;34.39;;
38266;SDS011;24063;51.794;19.578;2022-11-24T04:58:48;42.22;;;35.62;;
38266;SDS011;24063;51.794;19.578;2022-11-24T04:59:50;40.75;;;34.88;;
38266;SDS011;24063;51.794;19.578;2022-11-24T05:00:53;38.16;;;33.43;;
38266;SDS011;24063;51.794;19.578;2022-11-24T05:01:55;38.05;;;33.35;;
38266;SDS011;24063;51.794;19.578;2022-11-24T05:02:57;40.90;;;34.90;;
38266;SDS011;24063;51.794;19.578;2022-11-24T05:03:59;42.11;;;35.04;;
38266;SDS011;24063;51.794;19.578;2022-11-24T05:05:01;38.67;;;33.38;;
38266;SDS011;24063;51.794;19.578;2022-11-24T05:06:03;34.96;;;31.19;;
38266;SDS011;24063;51.794;19.578;2022-11-24T05:07:05;38.24;;;33.04;;
38266;SDS011;24063;51.794;19.578;2022-11-24T05:08:08;35.94;;;31.75;;
38266;SDS011;24063;51.794;19.578;2022-11-24T05:09:12;38.07;;;33.68;;
38266;SDS011;24063;51.794;19.578;2022-11-24T05:10:16;37.62;;;33.04;;
38266;SDS011;24063;51.794;19.578;2022-11-24T05:11:36;38.02;;;33.74;;
38266;SDS011;24063;51.794;19.578;2022-11-24T05:12:38;37.26;;;33.17;;
38266;SDS011;24063;51.794;19.578;2022-11-24T05:13:40;37.13;;;33.31;;
38266;SDS011;24063;51.794;19.578;2022-11-24T05:14:41;36.92;;;33.10;;
38266;SDS011;24063;51.794;19.578;2022-11-24T05:15:44;39.28;;;34.63;;
38266;SDS011;24063;51.794;19.578;2022-11-24T05:16:45;37.12;;;33.18;;
38266;SDS011;24063;51.794;19.578;2022-11-24T05:17:47;37.36;;;33.60;;
38266;SDS011;24063;51.794;19.578;2022-11-24T05:18:49;36.44;;;32.25;;
38266;SDS011;24063;51.794;19.578;2022-11-24T05:19:51;37.67;;;33.45;;
38266;SDS011;24063;51.794;19.578;2022-11-24T05:20:53;35.01;;;31.21;;
38266;SDS011;24063;51.794;19.578;2022-11-24T05:21:55;37.10;;;32.52;;
38266;SDS011;24063;51.794;19.578;2022-11-24T05:23:02;35.82;;;31.75;;
38266;SDS011;24063;51.794;19.578;2022-11-24T05:24:08;36.04;;;31.88;;
38266;SDS011;24063;51.794;19.578;2022-11-24T05:25:11;35.97;;;31.48;;
38266;SDS011;24063;51.794;19.578;2022-11-24T05:26:14;34.91;;;30.86;;
38266;SDS011;24063;51.794;19.578;2022-11-24T05:27:16;35.20;;;31.25;;
38266;SDS011;24063;51.794;19.578;2022-11-24T05:28:18;36.75;;;32.15;;
38266;SDS011;24063;51.794;19.578;2022-11-24T05:29:20;34.78;;;30.99;;
38266;SDS011;24063;51.794;19.578;2022-11-24T05:30:21;35.65;;;31.60;;
38266;SDS011;24063;51.794;19.578;2022-11-24T05:31:23;38.96;;;33.96;;
38266;SDS011;24063;51.794;19.578;2022-11-24T05:32:25;37.14;;;33.26;;
38266;SDS011;24063;51.794;19.578;2022-11-24T05:33:27;34.52;;;30.86;;
38266;SDS011;24063;51.794;19.578;2022-11-24T05:34:30;34.15;;;31.07;;
38266;SDS011;24063;51.794;19.578;2022-11-24T05:35:34;34.93;;;31.51;;
38266;SDS011;24063;51.794;19.578;2022-11-24T05:36:36;37.01;;;32.67;;
38266;SDS011;24063;51.794;19.578;2022-11-24T05:37:53;37.93;;;32.80;;
38266;SDS011;24063;51.794;19.578;2022-11-24T05:38:55;36.04;;;31.68;;
38266;SDS011;24063;51.794;19.578;2022-11-24T05:39:57;34.56;;;30.95;;
38266;SDS011;24063;51.794;19.578;2022-11-24T05:41:01;35.24;;;31.28;;
38266;SDS011;24063;51.794;19.578;2022-11-24T05:42:05;34.64;;;30.83;;
38266;SDS011;24063;51.794;19.578;2022-11-24T05:43:27;34.19;;;31.04;;
38266;SDS011;24063;51.794;19.578;2022-11-24T05:44:29;36.65;;;32.71;;
38266;SDS011;24063;51.794;19.578;2022-11-24T05:45:31;37.44;;;33.04;;
38266;SDS011;24063;51.794;19.578;2022-11-24T05:46:32;35.73;;;31.64;;
38266;SDS011;24063;51.794;19.578;2022-11-24T05:47:34;34.66;;;30.99;;
38266;SDS011;24063;51.794;19.578;2022-11-24T05:48:36;34.32;;;30.90;;
38266;SDS011;24063;51.794;19.578;2022-11-24T05:49:38;34.21;;;30.74;;
38266;SDS011;24063;51.794;19.578;2022-11-24T05:50:40;34.98;;;31.34;;
38266;SDS011;24063;51.794;19.578;2022-11-24T05:51:42;35.60;;;31.44;;
38266;SDS011;24063;51.794;19.578;2022-11-24T05:52:44;33.58;;;30.37;;
38266;SDS011;24063;51.794;19.578;2022-11-24T05:53:46;35.05;;;31.69;;
38266;SDS011;24063;51.794;19.578;2022-11-24T05:54:48;33.04;;;30.18;;
38266;SDS011;24063;51.794;19.578;2022-11-24T05:55:50;34.02;;;30.82;;
38266;SDS011;24063;51.794;19.578;2022-11-24T05:56:51;33.36;;;30.00;;
38266;SDS011;24063;51.794;19.578;2022-11-24T05:58:00;33.82;;;30.54;;
38266;SDS011;24063;51.794;19.578;2022-11-24T05:59:04;31.41;;;28.48;;
38266;SDS011;24063;51.794;19.578;2022-11-24T06:00:10;33.82;;;29.48;;
38266;SDS011;24063;51.794;19.578;2022-11-24T06:01:12;34.29;;;30.02;;
38266;SDS011;24063;51.794;19.578;2022-11-24T06:02:14;31.67;;;29.23;;
38266;SDS011;24063;51.794;19.578;2022-11-24T06:03:16;32.93;;;29.90;;
38266;SDS011;24063;51.794;19.578;2022-11-24T06:04:18;33.14;;;29.18;;
38266;SDS011;24063;51.794;19.578;2022-11-24T06:05:20;34.70;;;30.32;;
38266;SDS011;24063;51.794;19.578;2022-11-24T06:06:22;34.06;;;30.63;;
38266;SDS011;24063;51.794;19.578;2022-11-24T06:07:24;32.70;;;29.45;;
38266;SDS011;24063;51.794;19.578;2022-11-24T06:08:25;33.51;;;30.58;;
38266;SDS011;24063;51.794;19.578;2022-11-24T06:09:31;32.81;;;30.30;;
38266;SDS011;24063;51.794;19.578;2022-11-24T06:10:36;32.87;;;30.36;;
38266;SDS011;24063;51.794;19.578;2022-11-24T06:11:38;32.85;;;30.24;;